sensor_id;sensor_type;location;lat;lon;timestamp;P1;durP1;ratioP1;P2;durP2;ratioP2
9860;SDS011;4969;52.304;4.968;2023-03-16T00:00:11;6.57;;;5.97;;
9860;SDS011;4969;52.304;4.968;2023-03-16T00:02:38;4.30;;;4.00;;
9860;SDS011;4969;52.304;4.968;2023-03-16T00:05:06;5.33;;;4.53;;
9860;SDS011;4969;52.304;4.968;2023-03-16T00:07:33;5.83;;;5.23;;
9860;SDS011;4969;52.304;4.968;2023-03-16T00:10:00;6.20;;;4.27;;
9860;SDS011;4969;52.304;4.968;2023-03-16T00:12:27;6.50;;;5.50;;
9860;SDS011;4969;52.304;4.968;2023-03-16T00:14:58;7.07;;;6.37;;
9860;SDS011;4969;52.304;4.968;2023-03-16T00:17:27;5.93;;;5.37;;
9860;SDS011;4969;52.304;4.968;2023-03-16T00:19:54;8.83;;;7.60;;
9860;SDS011;4969;52.304;4.968;2023-03-16T00:22:22;9.27;;;7.23;;
9860;SDS011;4969;52.304;4.968;2023-03-16T00:24:50;6.03;;;4.67;;
9860;SDS011;4969;52.304;4.968;2023-03-16T00:27:17;11.80;;;9.03;;
9860;SDS011;4969;52.304;4.968;2023-03-16T00:29:47;5.50;;;3.73;;
9860;SDS011;4969;52.304;4.968;2023-03-16T00:32:14;10.87;;;7.40;;
9860;SDS011;4969;52.304;4.968;2023-03-16T00:34:44;9.27;;;6.27;;
9860;SDS011;4969;52.304;4.968;2023-03-16T00:37:11;9.97;;;7.83;;
9860;SDS011;4969;52.304;4.968;2023-03-16T00:39:39;15.57;;;12.18;;
9860;SDS011;4969;52.304;4.968;2023-03-16T00:42:06;11.05;;;9.32;;
9860;SDS011;4969;52.304;4.968;2023-03-16T00:44:33;16.90;;;14.23;;
9860;SDS011;4969;52.304;4.968;2023-03-16T00:47:00;15.40;;;12.05;;
9860;SDS011;4969;52.304;4.968;2023-03-16T00:49:26;9.60;;;8.30;;
9860;SDS011;4969;52.304;4.968;2023-03-16T00:51:54;20.60;;;17.37;;
9860;SDS011;4969;52.304;4.968;2023-03-16T00:54:21;19.02;;;16.00;;
9860;SDS011;4969;52.304;4.968;2023-03-16T00:56:47;16.93;;;14.93;;
9860;SDS011;4969;52.304;4.968;2023-03-16T00:59:14;10.85;;;8.63;;
9860;SDS011;4969;52.304;4.968;2023-03-16T01:01:41;15.55;;;13.57;;
9860;SDS011;4969;52.304;4.968;2023-03-16T01:04:07;12.82;;;11.30;;
9860;SDS011;4969;52.304;4.968;2023-03-16T01:06:34;17.23;;;13.18;;
9860;SDS011;4969;52.304;4.968;2023-03-16T01:09:02;17.70;;;14.23;;
9860;SDS011;4969;52.304;4.968;2023-03-16T01:11:30;18.60;;;15.02;;
9860;SDS011;4969;52.304;4.968;2023-03-16T01:13:58;24.08;;;20.45;;
9860;SDS011;4969;52.304;4.968;2023-03-16T01:16:25;29.75;;;22.83;;
9860;SDS011;4969;52.304;4.968;2023-03-16T01:18:52;18.45;;;15.45;;
9860;SDS011;4969;52.304;4.968;2023-03-16T01:21:19;20.75;;;14.73;;
9860;SDS011;4969;52.304;4.968;2023-03-16T01:23:46;22.88;;;20.00;;
9860;SDS011;4969;52.304;4.968;2023-03-16T01:26:14;15.80;;;13.43;;
9860;SDS011;4969;52.304;4.968;2023-03-16T01:28:42;32.00;;;26.13;;
9860;SDS011;4969;52.304;4.968;2023-03-16T01:31:10;26.88;;;20.80;;
9860;SDS011;4969;52.304;4.968;2023-03-16T01:33:38;26.08;;;20.48;;
9860;SDS011;4969;52.304;4.968;2023-03-16T01:36:06;28.20;;;21.77;;
9860;SDS011;4969;52.304;4.968;2023-03-16T01:38:35;29.40;;;23.58;;
9860;SDS011;4969;52.304;4.968;2023-03-16T01:41:02;18.10;;;14.35;;
9860;SDS011;4969;52.304;4.968;2023-03-16T01:43:31;17.80;;;15.82;;
9860;SDS011;4969;52.304;4.968;2023-03-16T01:48:54;21.80;;;17.77;;
9860;SDS011;4969;52.304;4.968;2023-03-16T01:51:26;22.65;;;18.77;;
9860;SDS011;4969;52.304;4.968;2023-03-16T01:53:57;17.42;;;12.98;;
9860;SDS011;4969;52.304;4.968;2023-03-16T01:56:28;20.95;;;18.10;;
9860;SDS011;4969;52.304;4.968;2023-03-16T01:59:01;21.15;;;18.25;;
9860;SDS011;4969;52.304;4.968;2023-03-16T02:01:32;26.27;;;21.30;;
9860;SDS011;4969;52.304;4.968;2023-03-16T02:04:01;15.73;;;12.52;;
9860;SDS011;4969;52.304;4.968;2023-03-16T02:06:37;23.38;;;20.25;;
9860;SDS011;4969;52.304;4.968;2023-03-16T02:09:05;23.67;;;19.73;;
9860;SDS011;4969;52.304;4.968;2023-03-16T02:11:32;25.02;;;20.75;;
9860;SDS011;4969;52.304;4.968;2023-03-16T02:14:03;20.05;;;17.00;;
9860;SDS011;4969;52.304;4.968;2023-03-16T02:16:34;22.27;;;19.73;;
9860;SDS011;4969;52.304;4.968;2023-03-16T02:19:00;23.58;;;20.60;;
9860;SDS011;4969;52.304;4.968;2023-03-16T02:21:29;21.80;;;17.75;;
9860;SDS011;4969;52.304;4.968;2023-03-16T02:23:59;19.08;;;14.50;;
9860;SDS011;4969;52.304;4.968;2023-03-16T02:26:28;26.30;;;21.88;;
9860;SDS011;4969;52.304;4.968;2023-03-16T02:29:09;20.75;;;17.63;;
9860;SDS011;4969;52.304;4.968;2023-03-16T02:31:43;25.45;;;20.48;;
9860;SDS011;4969;52.304;4.968;2023-03-16T02:34:10;23.17;;;18.90;;
9860;SDS011;4969;52.304;4.968;2023-03-16T02:36:39;15.68;;;12.40;;
9860;SDS011;4969;52.304;4.968;2023-03-16T02:39:07;14.05;;;12.07;;
9860;SDS011;4969;52.304;4.968;2023-03-16T02:41:33;22.05;;;19.45;;
9860;SDS011;4969;52.304;4.968;2023-03-16T02:44:00;22.98;;;17.92;;
9860;SDS011;4969;52.304;4.968;2023-03-16T02:46:30;19.83;;;17.13;;
9860;SDS011;4969;52.304;4.968;2023-03-16T02:49:02;6.13;;;4.20;;
9860;SDS011;4969;52.304;4.968;2023-03-16T02:51:32;23.42;;;20.90;;
9860;SDS011;4969;52.304;4.968;2023-03-16T02:53:59;21.75;;;16.20;;
9860;SDS011;4969;52.304;4.968;2023-03-16T02:56:25;20.23;;;17.15;;
9860;SDS011;4969;52.304;4.968;2023-03-16T02:58:52;19.52;;;16.20;;
9860;SDS011;4969;52.304;4.968;2023-03-16T03:01:18;23.10;;;20.38;;
9860;SDS011;4969;52.304;4.968;2023-03-16T03:03:45;18.63;;;16.30;;
9860;SDS011;4969;52.304;4.968;2023-03-16T03:06:13;7.57;;;6.70;;
9860;SDS011;4969;52.304;4.968;2023-03-16T03:08:40;20.25;;;16.40;;
9860;SDS011;4969;52.304;4.968;2023-03-16T03:11:07;13.43;;;9.98;;
9860;SDS011;4969;52.304;4.968;2023-03-16T03:13:34;19.58;;;17.48;;
9860;SDS011;4969;52.304;4.968;2023-03-16T03:16:03;18.08;;;15.98;;
9860;SDS011;4969;52.304;4.968;2023-03-16T03:18:30;20.52;;;18.10;;
9860;SDS011;4969;52.304;4.968;2023-03-16T03:20:56;12.82;;;11.45;;
9860;SDS011;4969;52.304;4.968;2023-03-16T03:23:24;17.25;;;15.02;;
9860;SDS011;4969;52.304;4.968;2023-03-16T03:25:51;20.10;;;14.93;;
9860;SDS011;4969;52.304;4.968;2023-03-16T03:28:18;19.23;;;14.88;;
9860;SDS011;4969;52.304;4.968;2023-03-16T03:30:44;13.65;;;11.45;;
9860;SDS011;4969;52.304;4.968;2023-03-16T03:33:11;17.75;;;14.05;;
9860;SDS011;4969;52.304;4.968;2023-03-16T03:35:37;18.83;;;15.55;;
9860;SDS011;4969;52.304;4.968;2023-03-16T03:38:06;15.93;;;14.20;;
9860;SDS011;4969;52.304;4.968;2023-03-16T03:40:34;17.25;;;13.75;;
9860;SDS011;4969;52.304;4.968;2023-03-16T03:43:00;14.48;;;11.77;;
9860;SDS011;4969;52.304;4.968;2023-03-16T03:45:27;16.38;;;12.95;;
9860;SDS011;4969;52.304;4.968;2023-03-16T03:47:54;14.93;;;13.15;;
9860;SDS011;4969;52.304;4.968;2023-03-16T03:50:20;10.18;;;8.80;;
9860;SDS011;4969;52.304;4.968;2023-03-16T03:52:47;12.02;;;10.75;;
9860;SDS011;4969;52.304;4.968;2023-03-16T03:55:13;11.32;;;9.88;;
9860;SDS011;4969;52.304;4.968;2023-03-16T03:57:41;9.82;;;8.27;;
9860;SDS011;4969;52.304;4.968;2023-03-16T04:00:08;12.93;;;10.85;;
9860;SDS011;4969;52.304;4.968;2023-03-16T04:02:37;14.73;;;9.25;;
9860;SDS011;4969;52.304;4.968;2023-03-16T04:05:04;9.15;;;8.25;;
9860;SDS011;4969;52.304;4.968;2023-03-16T04:07:31;10.20;;;9.07;;
9860;SDS011;4969;52.304;4.968;2023-03-16T04:09:58;12.45;;;11.15;;
9860;SDS011;4969;52.304;4.968;2023-03-16T04:12:25;11.23;;;9.27;;
9860;SDS011;4969;52.304;4.968;2023-03-16T04:14:53;9.95;;;8.98;;
9860;SDS011;4969;52.304;4.968;2023-03-16T04:17:19;7.10;;;6.35;;
9860;SDS011;4969;52.304;4.968;2023-03-16T04:19:46;11.70;;;9.80;;
9860;SDS011;4969;52.304;4.968;2023-03-16T04:22:13;10.43;;;9.43;;
9860;SDS011;4969;52.304;4.968;2023-03-16T04:24:39;8.48;;;7.55;;
9860;SDS011;4969;52.304;4.968;2023-03-16T04:27:07;11.60;;;9.45;;
9860;SDS011;4969;52.304;4.968;2023-03-16T04:29:36;11.68;;;10.48;;
9860;SDS011;4969;52.304;4.968;2023-03-16T04:32:04;10.55;;;9.45;;
9860;SDS011;4969;52.304;4.968;2023-03-16T04:34:30;11.85;;;10.23;;
9860;SDS011;4969;52.304;4.968;2023-03-16T04:36:57;13.20;;;10.40;;
9860;SDS011;4969;52.304;4.968;2023-03-16T04:39:24;8.00;;;6.38;;
9860;SDS011;4969;52.304;4.968;2023-03-16T04:41:50;10.25;;;8.13;;
9860;SDS011;4969;52.304;4.968;2023-03-16T04:44:17;11.98;;;9.07;;
9860;SDS011;4969;52.304;4.968;2023-03-16T04:46:43;10.18;;;9.02;;
9860;SDS011;4969;52.304;4.968;2023-03-16T04:49:11;8.32;;;7.18;;
9860;SDS011;4969;52.304;4.968;2023-03-16T04:51:38;10.30;;;8.85;;
9860;SDS011;4969;52.304;4.968;2023-03-16T04:54:06;4.97;;;3.85;;
9860;SDS011;4969;52.304;4.968;2023-03-16T04:56:33;8.05;;;7.05;;
9860;SDS011;4969;52.304;4.968;2023-03-16T04:58:59;6.72;;;5.60;;
9860;SDS011;4969;52.304;4.968;2023-03-16T05:01:26;9.02;;;8.13;;
9860;SDS011;4969;52.304;4.968;2023-03-16T05:03:53;7.53;;;6.32;;
9860;SDS011;4969;52.304;4.968;2023-03-16T05:06:21;5.93;;;4.80;;
9860;SDS011;4969;52.304;4.968;2023-03-16T05:08:47;7.55;;;6.45;;
9860;SDS011;4969;52.304;4.968;2023-03-16T05:11:14;10.07;;;7.22;;
9860;SDS011;4969;52.304;4.968;2023-03-16T05:13:40;8.82;;;7.07;;
9860;SDS011;4969;52.304;4.968;2023-03-16T05:16:07;7.25;;;6.32;;
9860;SDS011;4969;52.304;4.968;2023-03-16T05:18:33;8.40;;;7.10;;
9860;SDS011;4969;52.304;4.968;2023-03-16T05:21:00;6.75;;;5.90;;
9860;SDS011;4969;52.304;4.968;2023-03-16T05:23:28;8.10;;;6.88;;
9860;SDS011;4969;52.304;4.968;2023-03-16T05:25:54;6.78;;;5.78;;
9860;SDS011;4969;52.304;4.968;2023-03-16T05:28:25;6.63;;;5.68;;
9860;SDS011;4969;52.304;4.968;2023-03-16T05:30:51;7.30;;;6.57;;
9860;SDS011;4969;52.304;4.968;2023-03-16T05:33:18;7.15;;;6.10;;
9860;SDS011;4969;52.304;4.968;2023-03-16T05:35:45;5.97;;;4.55;;
9860;SDS011;4969;52.304;4.968;2023-03-16T05:38:12;5.40;;;4.18;;
9860;SDS011;4969;52.304;4.968;2023-03-16T05:40:41;5.72;;;4.90;;
9860;SDS011;4969;52.304;4.968;2023-03-16T05:43:07;5.18;;;4.20;;
9860;SDS011;4969;52.304;4.968;2023-03-16T05:45:34;4.75;;;4.22;;
9860;SDS011;4969;52.304;4.968;2023-03-16T05:48:00;4.60;;;3.40;;
9860;SDS011;4969;52.304;4.968;2023-03-16T05:50:29;4.32;;;3.58;;
9860;SDS011;4969;52.304;4.968;2023-03-16T05:52:56;3.57;;;3.27;;
9860;SDS011;4969;52.304;4.968;2023-03-16T05:55:22;5.10;;;4.13;;
9860;SDS011;4969;52.304;4.968;2023-03-16T05:57:50;3.85;;;3.45;;
9860;SDS011;4969;52.304;4.968;2023-03-16T06:00:17;4.00;;;3.13;;
9860;SDS011;4969;52.304;4.968;2023-03-16T06:02:46;4.13;;;2.70;;
9860;SDS011;4969;52.304;4.968;2023-03-16T06:05:15;5.18;;;3.63;;
9860;SDS011;4969;52.304;4.968;2023-03-16T06:07:43;5.00;;;3.25;;
9860;SDS011;4969;52.304;4.968;2023-03-16T06:10:10;3.33;;;3.03;;
9860;SDS011;4969;52.304;4.968;2023-03-16T06:12:37;3.47;;;3.13;;
9860;SDS011;4969;52.304;4.968;2023-03-16T06:15:06;3.17;;;2.88;;
9860;SDS011;4969;52.304;4.968;2023-03-16T06:17:34;3.30;;;2.63;;
9860;SDS011;4969;52.304;4.968;2023-03-16T06:20:01;3.78;;;2.75;;
9860;SDS011;4969;52.304;4.968;2023-03-16T06:22:35;4.80;;;2.97;;
9860;SDS011;4969;52.304;4.968;2023-03-16T06:25:02;4.88;;;3.00;;
9860;SDS011;4969;52.304;4.968;2023-03-16T06:27:28;5.25;;;2.85;;
9860;SDS011;4969;52.304;4.968;2023-03-16T06:29:55;3.45;;;3.08;;
9860;SDS011;4969;52.304;4.968;2023-03-16T06:32:23;3.57;;;3.27;;
9860;SDS011;4969;52.304;4.968;2023-03-16T06:34:49;2.80;;;2.60;;
9860;SDS011;4969;52.304;4.968;2023-03-16T06:37:16;4.35;;;2.83;;
9860;SDS011;4969;52.304;4.968;2023-03-16T06:39:43;5.13;;;2.75;;
9860;SDS011;4969;52.304;4.968;2023-03-16T06:42:09;4.10;;;2.37;;
9860;SDS011;4969;52.304;4.968;2023-03-16T06:44:36;5.05;;;3.30;;
9860;SDS011;4969;52.304;4.968;2023-03-16T06:47:03;4.40;;;2.90;;
9860;SDS011;4969;52.304;4.968;2023-03-16T06:49:31;2.67;;;2.47;;
9860;SDS011;4969;52.304;4.968;2023-03-16T06:51:58;3.45;;;2.50;;
9860;SDS011;4969;52.304;4.968;2023-03-16T06:54:26;5.45;;;2.40;;
9860;SDS011;4969;52.304;4.968;2023-03-16T06:56:52;3.90;;;2.60;;
9860;SDS011;4969;52.304;4.968;2023-03-16T06:59:19;3.70;;;2.50;;
9860;SDS011;4969;52.304;4.968;2023-03-16T07:01:45;6.20;;;2.90;;
9860;SDS011;4969;52.304;4.968;2023-03-16T07:04:14;4.18;;;2.80;;
9860;SDS011;4969;52.304;4.968;2023-03-16T07:06:42;4.10;;;2.67;;
9860;SDS011;4969;52.304;4.968;2023-03-16T07:09:08;3.60;;;2.45;;
9860;SDS011;4969;52.304;4.968;2023-03-16T07:11:36;5.07;;;3.47;;
9860;SDS011;4969;52.304;4.968;2023-03-16T07:14:03;5.55;;;4.00;;
9860;SDS011;4969;52.304;4.968;2023-03-16T07:16:29;5.03;;;3.03;;
9860;SDS011;4969;52.304;4.968;2023-03-16T07:18:56;6.55;;;4.80;;
9860;SDS011;4969;52.304;4.968;2023-03-16T07:21:23;7.95;;;4.57;;
9860;SDS011;4969;52.304;4.968;2023-03-16T07:23:51;4.45;;;3.63;;
9860;SDS011;4969;52.304;4.968;2023-03-16T07:26:19;8.70;;;5.78;;
9860;SDS011;4969;52.304;4.968;2023-03-16T07:28:47;5.20;;;3.60;;
9860;SDS011;4969;52.304;4.968;2023-03-16T07:31:13;7.65;;;6.15;;
9860;SDS011;4969;52.304;4.968;2023-03-16T07:33:40;8.93;;;6.43;;
9860;SDS011;4969;52.304;4.968;2023-03-16T07:36:07;6.53;;;4.20;;
9860;SDS011;4969;52.304;4.968;2023-03-16T07:38:34;9.65;;;7.13;;
9860;SDS011;4969;52.304;4.968;2023-03-16T07:41:02;11.68;;;8.88;;
9860;SDS011;4969;52.304;4.968;2023-03-16T07:43:29;13.18;;;9.73;;
9860;SDS011;4969;52.304;4.968;2023-03-16T07:45:55;8.52;;;7.43;;
9860;SDS011;4969;52.304;4.968;2023-03-16T07:48:22;9.93;;;7.68;;
9860;SDS011;4969;52.304;4.968;2023-03-16T07:50:49;10.45;;;7.30;;
9860;SDS011;4969;52.304;4.968;2023-03-16T07:53:15;10.60;;;9.15;;
9860;SDS011;4969;52.304;4.968;2023-03-16T07:55:42;7.67;;;6.93;;
9860;SDS011;4969;52.304;4.968;2023-03-16T07:58:11;9.93;;;6.87;;
9860;SDS011;4969;52.304;4.968;2023-03-16T08:00:38;9.35;;;6.80;;
9860;SDS011;4969;52.304;4.968;2023-03-16T08:03:06;6.57;;;5.20;;
9860;SDS011;4969;52.304;4.968;2023-03-16T08:05:33;12.27;;;6.90;;
9860;SDS011;4969;52.304;4.968;2023-03-16T08:07:59;5.05;;;3.25;;
9860;SDS011;4969;52.304;4.968;2023-03-16T08:10:26;5.68;;;4.32;;
9860;SDS011;4969;52.304;4.968;2023-03-16T08:12:53;5.73;;;5.00;;
9860;SDS011;4969;52.304;4.968;2023-03-16T08:15:21;5.78;;;4.63;;
9860;SDS011;4969;52.304;4.968;2023-03-16T08:17:47;6.70;;;4.77;;
9860;SDS011;4969;52.304;4.968;2023-03-16T08:20:14;7.38;;;5.57;;
9860;SDS011;4969;52.304;4.968;2023-03-16T08:22:40;6.57;;;4.10;;
9860;SDS011;4969;52.304;4.968;2023-03-16T08:25:10;4.50;;;3.42;;
9860;SDS011;4969;52.304;4.968;2023-03-16T08:27:37;8.90;;;5.93;;
9860;SDS011;4969;52.304;4.968;2023-03-16T08:30:05;5.65;;;3.47;;
9860;SDS011;4969;52.304;4.968;2023-03-16T08:32:37;6.88;;;3.90;;
9860;SDS011;4969;52.304;4.968;2023-03-16T08:35:05;5.57;;;4.25;;
9860;SDS011;4969;52.304;4.968;2023-03-16T08:37:32;5.25;;;3.90;;
9860;SDS011;4969;52.304;4.968;2023-03-16T08:39:59;7.93;;;4.50;;
9860;SDS011;4969;52.304;4.968;2023-03-16T08:42:25;7.45;;;3.90;;
9860;SDS011;4969;52.304;4.968;2023-03-16T08:44:52;4.18;;;3.58;;
9860;SDS011;4969;52.304;4.968;2023-03-16T08:47:19;6.20;;;4.03;;
9860;SDS011;4969;52.304;4.968;2023-03-16T08:49:48;8.02;;;5.03;;
9860;SDS011;4969;52.304;4.968;2023-03-16T08:52:15;5.68;;;3.80;;
9860;SDS011;4969;52.304;4.968;2023-03-16T08:54:42;6.07;;;4.10;;
9860;SDS011;4969;52.304;4.968;2023-03-16T08:57:09;8.77;;;4.47;;
9860;SDS011;4969;52.304;4.968;2023-03-16T08:59:36;6.28;;;5.22;;
9860;SDS011;4969;52.304;4.968;2023-03-16T09:02:03;6.32;;;5.50;;
9860;SDS011;4969;52.304;4.968;2023-03-16T09:04:29;4.68;;;2.95;;
9860;SDS011;4969;52.304;4.968;2023-03-16T09:06:57;4.05;;;2.88;;
9860;SDS011;4969;52.304;4.968;2023-03-16T09:09:24;7.28;;;5.50;;
9860;SDS011;4969;52.304;4.968;2023-03-16T09:11:51;8.25;;;6.45;;
9860;SDS011;4969;52.304;4.968;2023-03-16T09:14:18;7.68;;;5.68;;
9860;SDS011;4969;52.304;4.968;2023-03-16T09:16:44;9.07;;;6.32;;
9860;SDS011;4969;52.304;4.968;2023-03-16T09:19:11;9.48;;;6.22;;
9860;SDS011;4969;52.304;4.968;2023-03-16T09:21:37;8.38;;;5.28;;
9860;SDS011;4969;52.304;4.968;2023-03-16T09:24:05;7.90;;;4.75;;
9860;SDS011;4969;52.304;4.968;2023-03-16T09:26:32;11.20;;;5.13;;
9860;SDS011;4969;52.304;4.968;2023-03-16T09:28:59;11.50;;;7.28;;
9860;SDS011;4969;52.304;4.968;2023-03-16T09:31:26;9.30;;;6.40;;
9860;SDS011;4969;52.304;4.968;2023-03-16T09:33:52;13.40;;;8.80;;
9860;SDS011;4969;52.304;4.968;2023-03-16T09:36:19;20.02;;;10.35;;
9860;SDS011;4969;52.304;4.968;2023-03-16T09:38:46;9.90;;;7.35;;
9860;SDS011;4969;52.304;4.968;2023-03-16T09:41:20;6.72;;;4.53;;
9860;SDS011;4969;52.304;4.968;2023-03-16T09:44:03;17.00;;;11.80;;
9860;SDS011;4969;52.304;4.968;2023-03-16T09:46:36;17.30;;;11.55;;
9860;SDS011;4969;52.304;4.968;2023-03-16T09:49:07;18.63;;;12.98;;
9860;SDS011;4969;52.304;4.968;2023-03-16T09:51:36;15.65;;;10.63;;
9860;SDS011;4969;52.304;4.968;2023-03-16T09:54:11;10.18;;;7.30;;
9860;SDS011;4969;52.304;4.968;2023-03-16T09:56:45;6.43;;;5.43;;
9860;SDS011;4969;52.304;4.968;2023-03-16T09:59:14;14.50;;;8.85;;
9860;SDS011;4969;52.304;4.968;2023-03-16T10:01:45;13.35;;;9.82;;
9860;SDS011;4969;52.304;4.968;2023-03-16T10:04:25;17.45;;;11.80;;
9860;SDS011;4969;52.304;4.968;2023-03-16T10:07:15;20.98;;;12.82;;
9860;SDS011;4969;52.304;4.968;2023-03-16T10:09:53;8.05;;;4.65;;
9860;SDS011;4969;52.304;4.968;2023-03-16T10:12:28;5.00;;;4.38;;
9860;SDS011;4969;52.304;4.968;2023-03-16T10:14:57;7.40;;;5.20;;
9860;SDS011;4969;52.304;4.968;2023-03-16T10:17:31;13.52;;;9.93;;
9860;SDS011;4969;52.304;4.968;2023-03-16T10:20:03;12.70;;;9.35;;
9860;SDS011;4969;52.304;4.968;2023-03-16T10:22:33;13.10;;;9.45;;
9860;SDS011;4969;52.304;4.968;2023-03-16T10:25:05;8.50;;;5.82;;
9860;SDS011;4969;52.304;4.968;2023-03-16T10:27:35;8.07;;;6.65;;
9860;SDS011;4969;52.304;4.968;2023-03-16T10:30:05;7.70;;;6.55;;
9860;SDS011;4969;52.304;4.968;2023-03-16T10:32:42;9.82;;;7.53;;
9860;SDS011;4969;52.304;4.968;2023-03-16T10:35:10;8.80;;;6.40;;
9860;SDS011;4969;52.304;4.968;2023-03-16T10:37:47;11.80;;;8.60;;
9860;SDS011;4969;52.304;4.968;2023-03-16T10:40:14;9.70;;;6.85;;
9860;SDS011;4969;52.304;4.968;2023-03-16T10:42:45;8.20;;;5.93;;
9860;SDS011;4969;52.304;4.968;2023-03-16T10:45:19;8.02;;;5.88;;
9860;SDS011;4969;52.304;4.968;2023-03-16T10:47:51;11.38;;;6.95;;
9860;SDS011;4969;52.304;4.968;2023-03-16T10:50:22;7.13;;;4.78;;
9860;SDS011;4969;52.304;4.968;2023-03-16T10:52:51;13.18;;;6.72;;
9860;SDS011;4969;52.304;4.968;2023-03-16T10:55:21;9.10;;;7.82;;
9860;SDS011;4969;52.304;4.968;2023-03-16T10:57:51;11.00;;;8.07;;
9860;SDS011;4969;52.304;4.968;2023-03-16T11:00:20;3.78;;;3.25;;
9860;SDS011;4969;52.304;4.968;2023-03-16T11:02:50;10.32;;;7.05;;
9860;SDS011;4969;52.304;4.968;2023-03-16T11:05:24;7.68;;;6.13;;
9860;SDS011;4969;52.304;4.968;2023-03-16T11:07:55;11.00;;;8.07;;
9860;SDS011;4969;52.304;4.968;2023-03-16T11:10:27;8.48;;;7.22;;
9860;SDS011;4969;52.304;4.968;2023-03-16T11:13:10;4.75;;;3.08;;
9860;SDS011;4969;52.304;4.968;2023-03-16T11:15:42;7.88;;;6.03;;
9860;SDS011;4969;52.304;4.968;2023-03-16T11:18:18;6.68;;;5.10;;
9860;SDS011;4969;52.304;4.968;2023-03-16T11:20:53;8.43;;;5.97;;
9860;SDS011;4969;52.304;4.968;2023-03-16T11:23:24;9.95;;;6.55;;
9860;SDS011;4969;52.304;4.968;2023-03-16T11:25:55;6.80;;;5.47;;
9860;SDS011;4969;52.304;4.968;2023-03-16T11:28:31;4.70;;;4.20;;
9860;SDS011;4969;52.304;4.968;2023-03-16T11:31:04;15.15;;;9.57;;
9860;SDS011;4969;52.304;4.968;2023-03-16T11:33:37;14.25;;;10.70;;
9860;SDS011;4969;52.304;4.968;2023-03-16T11:36:09;12.77;;;8.88;;
9860;SDS011;4969;52.304;4.968;2023-03-16T11:38:45;6.50;;;5.13;;
9860;SDS011;4969;52.304;4.968;2023-03-16T11:41:24;18.33;;;12.07;;
9860;SDS011;4969;52.304;4.968;2023-03-16T11:44:00;15.82;;;10.32;;
9860;SDS011;4969;52.304;4.968;2023-03-16T11:46:30;11.95;;;9.77;;
9860;SDS011;4969;52.304;4.968;2023-03-16T11:52:04;11.32;;;9.80;;
9860;SDS011;4969;52.304;4.968;2023-03-16T11:54:42;18.75;;;12.25;;
9860;SDS011;4969;52.304;4.968;2023-03-16T11:57:25;10.73;;;9.18;;
9860;SDS011;4969;52.304;4.968;2023-03-16T12:00:02;11.98;;;7.28;;
9860;SDS011;4969;52.304;4.968;2023-03-16T12:02:53;14.48;;;11.95;;
9860;SDS011;4969;52.304;4.968;2023-03-16T12:05:38;10.02;;;7.13;;
9860;SDS011;4969;52.304;4.968;2023-03-16T12:08:24;8.60;;;7.10;;
9860;SDS011;4969;52.304;4.968;2023-03-16T12:11:13;18.33;;;13.93;;
9860;SDS011;4969;52.304;4.968;2023-03-16T12:13:49;9.60;;;7.97;;
9860;SDS011;4969;52.304;4.968;2023-03-16T12:16:27;9.23;;;6.75;;
9860;SDS011;4969;52.304;4.968;2023-03-16T12:18:59;8.43;;;5.57;;
9860;SDS011;4969;52.304;4.968;2023-03-16T12:21:31;9.30;;;6.18;;
9860;SDS011;4969;52.304;4.968;2023-03-16T12:24:03;5.35;;;4.15;;
9860;SDS011;4969;52.304;4.968;2023-03-16T12:26:33;8.60;;;6.40;;
9860;SDS011;4969;52.304;4.968;2023-03-16T12:29:06;10.90;;;8.95;;
9860;SDS011;4969;52.304;4.968;2023-03-16T12:31:46;17.17;;;11.73;;
9860;SDS011;4969;52.304;4.968;2023-03-16T12:34:21;9.43;;;7.80;;
9860;SDS011;4969;52.304;4.968;2023-03-16T12:37:13;13.05;;;9.52;;
9860;SDS011;4969;52.304;4.968;2023-03-16T12:39:55;14.90;;;11.07;;
9860;SDS011;4969;52.304;4.968;2023-03-16T12:42:50;16.05;;;11.65;;
9860;SDS011;4969;52.304;4.968;2023-03-16T12:45:28;7.63;;;2.47;;
9860;SDS011;4969;52.304;4.968;2023-03-16T12:48:05;15.02;;;10.40;;
9860;SDS011;4969;52.304;4.968;2023-03-16T12:50:49;7.32;;;6.40;;
9860;SDS011;4969;52.304;4.968;2023-03-16T12:53:23;17.42;;;11.00;;
9860;SDS011;4969;52.304;4.968;2023-03-16T12:55:52;10.88;;;7.97;;
9860;SDS011;4969;52.304;4.968;2023-03-16T12:58:20;10.77;;;7.60;;
9860;SDS011;4969;52.304;4.968;2023-03-16T13:00:53;8.73;;;6.57;;
9860;SDS011;4969;52.304;4.968;2023-03-16T13:03:23;9.50;;;8.15;;
9860;SDS011;4969;52.304;4.968;2023-03-16T13:05:52;7.13;;;5.25;;
9860;SDS011;4969;52.304;4.968;2023-03-16T13:08:20;12.27;;;7.88;;
9860;SDS011;4969;52.304;4.968;2023-03-16T13:11:00;10.13;;;7.07;;
9860;SDS011;4969;52.304;4.968;2023-03-16T13:13:29;4.47;;;3.67;;
9860;SDS011;4969;52.304;4.968;2023-03-16T13:16:01;8.77;;;7.03;;
9860;SDS011;4969;52.304;4.968;2023-03-16T13:18:36;4.18;;;2.17;;
9860;SDS011;4969;52.304;4.968;2023-03-16T13:21:16;11.60;;;7.68;;
9860;SDS011;4969;52.304;4.968;2023-03-16T13:23:52;7.78;;;6.57;;
9860;SDS011;4969;52.304;4.968;2023-03-16T13:26:22;9.80;;;6.97;;
9860;SDS011;4969;52.304;4.968;2023-03-16T13:28:58;12.43;;;7.45;;
9860;SDS011;4969;52.304;4.968;2023-03-16T13:31:26;11.02;;;7.13;;
9860;SDS011;4969;52.304;4.968;2023-03-16T13:33:59;4.35;;;3.95;;
9860;SDS011;4969;52.304;4.968;2023-03-16T13:36:27;7.38;;;6.65;;
9860;SDS011;4969;52.304;4.968;2023-03-16T13:38:56;5.55;;;4.85;;
9860;SDS011;4969;52.304;4.968;2023-03-16T13:41:29;8.88;;;7.07;;
9860;SDS011;4969;52.304;4.968;2023-03-16T13:43:56;5.13;;;4.47;;
9860;SDS011;4969;52.304;4.968;2023-03-16T13:46:26;7.57;;;5.13;;
9860;SDS011;4969;52.304;4.968;2023-03-16T13:48:55;10.10;;;7.10;;
9860;SDS011;4969;52.304;4.968;2023-03-16T13:51:25;8.68;;;7.53;;
9860;SDS011;4969;52.304;4.968;2023-03-16T13:53:54;9.30;;;6.45;;
9860;SDS011;4969;52.304;4.968;2023-03-16T13:56:22;5.70;;;3.65;;
9860;SDS011;4969;52.304;4.968;2023-03-16T13:58:52;7.05;;;5.35;;
9860;SDS011;4969;52.304;4.968;2023-03-16T14:01:24;4.97;;;3.63;;
9860;SDS011;4969;52.304;4.968;2023-03-16T14:03:53;7.78;;;6.20;;
9860;SDS011;4969;52.304;4.968;2023-03-16T14:06:22;6.38;;;5.00;;
9860;SDS011;4969;52.304;4.968;2023-03-16T14:08:52;3.85;;;3.00;;
9860;SDS011;4969;52.304;4.968;2023-03-16T14:11:22;7.93;;;6.78;;
9860;SDS011;4969;52.304;4.968;2023-03-16T14:13:51;10.40;;;6.80;;
9860;SDS011;4969;52.304;4.968;2023-03-16T14:16:18;6.05;;;4.47;;
9860;SDS011;4969;52.304;4.968;2023-03-16T14:18:50;7.55;;;4.97;;
9860;SDS011;4969;52.304;4.968;2023-03-16T14:21:20;5.85;;;4.50;;
9860;SDS011;4969;52.304;4.968;2023-03-16T14:23:50;7.47;;;5.35;;
9860;SDS011;4969;52.304;4.968;2023-03-16T14:26:20;3.78;;;3.13;;
9860;SDS011;4969;52.304;4.968;2023-03-16T14:28:54;13.13;;;7.45;;
9860;SDS011;4969;52.304;4.968;2023-03-16T14:31:29;9.85;;;7.60;;
9860;SDS011;4969;52.304;4.968;2023-03-16T14:33:58;7.43;;;5.40;;
9860;SDS011;4969;52.304;4.968;2023-03-16T14:36:32;7.03;;;5.70;;
9860;SDS011;4969;52.304;4.968;2023-03-16T14:39:09;7.13;;;4.72;;
9860;SDS011;4969;52.304;4.968;2023-03-16T14:41:37;4.75;;;3.90;;
9860;SDS011;4969;52.304;4.968;2023-03-16T14:44:04;5.47;;;4.47;;
9860;SDS011;4969;52.304;4.968;2023-03-16T14:46:38;6.85;;;5.80;;
9860;SDS011;4969;52.304;4.968;2023-03-16T14:49:06;6.45;;;5.82;;
9860;SDS011;4969;52.304;4.968;2023-03-16T14:51:35;7.18;;;6.47;;
9860;SDS011;4969;52.304;4.968;2023-03-16T14:54:07;6.50;;;5.50;;
9860;SDS011;4969;52.304;4.968;2023-03-16T14:56:38;3.92;;;2.92;;
9860;SDS011;4969;52.304;4.968;2023-03-16T14:59:06;6.90;;;6.20;;
9860;SDS011;4969;52.304;4.968;2023-03-16T15:01:33;4.32;;;3.83;;
9860;SDS011;4969;52.304;4.968;2023-03-16T15:04:00;4.15;;;3.78;;
9860;SDS011;4969;52.304;4.968;2023-03-16T15:06:27;8.43;;;6.15;;
9860;SDS011;4969;52.304;4.968;2023-03-16T15:08:55;9.43;;;5.80;;
9860;SDS011;4969;52.304;4.968;2023-03-16T15:11:23;6.20;;;5.32;;
9860;SDS011;4969;52.304;4.968;2023-03-16T15:13:50;6.40;;;5.22;;
9860;SDS011;4969;52.304;4.968;2023-03-16T15:16:28;2.03;;;1.58;;
9860;SDS011;4969;52.304;4.968;2023-03-16T15:18:55;3.90;;;2.78;;
9860;SDS011;4969;52.304;4.968;2023-03-16T15:21:22;4.18;;;2.78;;
9860;SDS011;4969;52.304;4.968;2023-03-16T15:23:54;6.22;;;5.05;;